createdAt,value
2017-05-27T00:10:55.000Z,65.6
2017-05-27T00:27:39.000Z,66.4
2017-05-27T00:44:24.000Z,66.8
2017-05-27T01:01:09.000Z,67.6
2017-05-27T01:17:53.000Z,68
2017-05-27T01:34:37.000Z,68.4
2017-05-27T01:51:21.000Z,68.8
2017-05-27T02:08:04.000Z,68.8
2017-05-27T02:24:48.000Z,69.6
2017-05-27T02:41:33.000Z,70
2017-05-27T02:58:16.000Z,70.4
2017-05-27T03:15:00.000Z,70.4
2017-05-27T03:31:43.000Z,70.8
2017-05-27T03:48:26.000Z,71.2
2017-05-27T04:05:10.000Z,72
2017-05-27T04:21:53.000Z,72.4
2017-05-27T04:38:36.000Z,72
2017-05-27T04:55:20.000Z,71.6
2017-05-27T05:12:04.000Z,71.6
2017-05-27T05:28:49.000Z,70.8
2017-05-27T05:45:34.000Z,70.4
2017-05-27T05:58:59.000Z,69.6
2017-05-27T06:05:41.000Z,68.8
2017-05-27T06:15:45.000Z,68
2017-05-27T06:25:50.000Z,66.8
2017-05-27T06:39:16.000Z,65.2
2017-05-27T06:56:04.000Z,64.4
2017-05-27T07:06:10.000Z,63.2
2017-05-27T07:22:59.000Z,62
2017-05-27T07:39:49.000Z,61.2
2017-05-27T07:56:39.000Z,60
2017-05-27T08:10:09.000Z,58.4
2017-05-27T08:27:00.000Z,56.4
2017-05-27T08:43:51.000Z,55.6
2017-05-27T09:00:43.000Z,54.4
2017-05-27T09:17:36.000Z,53.6
2017-05-27T09:34:28.000Z,53.2
2017-05-27T09:51:22.000Z,52
2017-05-27T10:08:15.000Z,51.2
2017-05-27T10:21:46.000Z,49.2
2017-05-27T10:36:59.000Z,48.8
2017-05-27T10:53:54.000Z,47.2
2017-05-27T11:10:50.000Z,46.8
2017-05-27T11:27:45.000Z,46.4
2017-05-27T11:44:41.000Z,45.6
2017-05-27T11:59:55.000Z,43.2
2017-05-27T12:16:51.000Z,42.4
2017-05-27T12:33:47.000Z,42.4
2017-05-27T12:50:44.000Z,41.6
2017-05-27T13:07:41.000Z,40.4
2017-05-27T13:24:38.000Z,39.6
2017-05-27T13:29:44.000Z,37.6
2017-05-27T13:31:25.000Z,39.6
2017-05-27T13:48:22.000Z,40
2017-05-27T14:05:20.000Z,39.6
2017-05-27T14:22:17.000Z,39.6
2017-05-27T14:39:14.000Z,39.6
2017-05-27T14:56:11.000Z,39.6
2017-05-27T15:13:08.000Z,39.6
2017-05-27T15:30:06.000Z,39.6
2017-05-27T15:47:04.000Z,39.6
2017-05-27T16:04:01.000Z,39.6
2017-05-27T16:09:07.000Z,39.2
2017-05-27T16:26:06.000Z,40
2017-05-27T16:31:11.000Z,38.8
2017-05-27T16:41:23.000Z,38
2017-05-27T16:56:41.000Z,37.2
2017-05-27T17:03:29.000Z,38
2017-05-27T17:06:53.000Z,37.6
2017-05-27T17:23:53.000Z,37.6
2017-05-27T17:34:05.000Z,37.6
2017-05-27T17:40:53.000Z,38.4
2017-05-27T17:47:41.000Z,38.8
2017-05-27T17:54:28.000Z,39.6
2017-05-27T18:01:14.000Z,40.4
2017-05-27T18:09:43.000Z,41.6
2017-05-27T18:16:29.000Z,42.4
2017-05-27T18:31:42.000Z,43.2
2017-05-27T18:48:37.000Z,45.2
2017-05-27T19:02:08.000Z,46
2017-05-27T19:19:01.000Z,46.8
2017-05-27T19:35:53.000Z,47.6
2017-05-27T19:49:23.000Z,48.4
2017-05-27T20:06:14.000Z,49.2
2017-05-27T20:23:06.000Z,50
2017-05-27T20:39:57.000Z,51.2
2017-05-27T20:56:48.000Z,51.6
2017-05-27T21:13:38.000Z,51.6
2017-05-27T21:30:28.000Z,52
2017-05-27T21:47:17.000Z,52.4
2017-05-27T22:04:08.000Z,53.6
2017-05-27T22:20:57.000Z,54
2017-05-27T22:37:45.000Z,55.2
2017-05-27T22:54:34.000Z,56
2017-05-27T23:11:23.000Z,56.4
2017-05-27T23:28:11.000Z,56.8
2017-05-27T23:44:59.000Z,56.4
